sensor_id;sensor_type;location;lat;lon;timestamp;P1;durP1;ratioP1;P2;durP2;ratioP2
19673;SDS011;9986;50.610;7.230;2022-07-23T00:00:52;9.97;;;8.77;;
19673;SDS011;9986;50.610;7.230;2022-07-23T00:05:59;10.70;;;8.87;;
19673;SDS011;9986;50.610;7.230;2022-07-23T00:08:36;9.63;;;8.00;;
19673;SDS011;9986;50.610;7.230;2022-07-23T00:11:17;9.20;;;8.27;;
19673;SDS011;9986;50.610;7.230;2022-07-23T00:13:55;8.73;;;7.83;;
19673;SDS011;9986;50.610;7.230;2022-07-23T00:16:33;10.83;;;8.80;;
19673;SDS011;9986;50.610;7.230;2022-07-23T00:19:17;12.20;;;8.73;;
19673;SDS011;9986;50.610;7.230;2022-07-23T00:24:30;8.83;;;7.87;;
19673;SDS011;9986;50.610;7.230;2022-07-23T00:27:08;11.07;;;8.43;;
19673;SDS011;9986;50.610;7.230;2022-07-23T00:29:47;11.33;;;9.00;;
19673;SDS011;9986;50.610;7.230;2022-07-23T00:32:25;12.40;;;9.37;;
19673;SDS011;9986;50.610;7.230;2022-07-23T00:37:32;11.60;;;8.00;;
19673;SDS011;9986;50.610;7.230;2022-07-23T00:40:11;11.60;;;9.03;;
19673;SDS011;9986;50.610;7.230;2022-07-23T00:42:49;10.70;;;9.03;;
19673;SDS011;9986;50.610;7.230;2022-07-23T00:45:27;11.33;;;8.93;;
19673;SDS011;9986;50.610;7.230;2022-07-23T00:48:05;11.00;;;9.10;;
19673;SDS011;9986;50.610;7.230;2022-07-23T00:50:43;12.63;;;9.30;;
19673;SDS011;9986;50.610;7.230;2022-07-23T00:53:21;11.00;;;8.87;;
19673;SDS011;9986;50.610;7.230;2022-07-23T00:55:59;11.77;;;9.87;;
19673;SDS011;9986;50.610;7.230;2022-07-23T00:58:39;11.03;;;9.70;;
19673;SDS011;9986;50.610;7.230;2022-07-23T01:03:48;12.93;;;10.07;;
19673;SDS011;9986;50.610;7.230;2022-07-23T01:06:26;10.63;;;9.53;;
19673;SDS011;9986;50.610;7.230;2022-07-23T01:09:04;12.30;;;9.90;;
19673;SDS011;9986;50.610;7.230;2022-07-23T01:11:44;11.87;;;9.30;;
19673;SDS011;9986;50.610;7.230;2022-07-23T01:16:52;10.93;;;9.10;;
19673;SDS011;9986;50.610;7.230;2022-07-23T01:19:30;9.07;;;8.17;;
19673;SDS011;9986;50.610;7.230;2022-07-23T01:24:44;13.57;;;9.53;;
19673;SDS011;9986;50.610;7.230;2022-07-23T01:32:37;12.07;;;10.00;;
19673;SDS011;9986;50.610;7.230;2022-07-23T01:35:14;12.13;;;10.43;;
19673;SDS011;9986;50.610;7.230;2022-07-23T01:37:52;12.30;;;9.93;;
19673;SDS011;9986;50.610;7.230;2022-07-23T01:40:30;12.87;;;10.07;;
19673;SDS011;9986;50.610;7.230;2022-07-23T01:43:07;11.67;;;9.93;;
19673;SDS011;9986;50.610;7.230;2022-07-23T01:45:45;12.70;;;10.13;;
19673;SDS011;9986;50.610;7.230;2022-07-23T01:48:23;12.03;;;10.77;;
19673;SDS011;9986;50.610;7.230;2022-07-23T01:56:13;12.10;;;10.00;;
19673;SDS011;9986;50.610;7.230;2022-07-23T01:58:50;13.73;;;11.27;;
19673;SDS011;9986;50.610;7.230;2022-07-23T02:01:28;14.20;;;10.27;;
19673;SDS011;9986;50.610;7.230;2022-07-23T02:06:35;12.53;;;9.77;;
19673;SDS011;9986;50.610;7.230;2022-07-23T02:09:13;10.70;;;9.57;;
19673;SDS011;9986;50.610;7.230;2022-07-23T02:14:27;15.20;;;11.00;;
19673;SDS011;9986;50.610;7.230;2022-07-23T02:17:05;13.97;;;10.53;;
19673;SDS011;9986;50.610;7.230;2022-07-23T02:19:42;12.97;;;10.27;;
19673;SDS011;9986;50.610;7.230;2022-07-23T02:22:26;12.17;;;10.70;;
19673;SDS011;9986;50.610;7.230;2022-07-23T02:25:04;13.67;;;11.53;;
19673;SDS011;9986;50.610;7.230;2022-07-23T02:30:13;15.20;;;11.47;;
19673;SDS011;9986;50.610;7.230;2022-07-23T02:35:20;15.37;;;12.63;;
19673;SDS011;9986;50.610;7.230;2022-07-23T02:37:57;16.27;;;11.40;;
19673;SDS011;9986;50.610;7.230;2022-07-23T02:40:35;12.20;;;10.30;;
19673;SDS011;9986;50.610;7.230;2022-07-23T02:43:13;11.60;;;10.03;;
19673;SDS011;9986;50.610;7.230;2022-07-23T02:45:51;14.30;;;11.17;;
19673;SDS011;9986;50.610;7.230;2022-07-23T02:51:05;11.47;;;9.93;;
19673;SDS011;9986;50.610;7.230;2022-07-23T02:56:12;13.80;;;10.47;;
19673;SDS011;9986;50.610;7.230;2022-07-23T03:01:22;16.67;;;10.80;;
19673;SDS011;9986;50.610;7.230;2022-07-23T03:03:59;12.03;;;10.77;;
19673;SDS011;9986;50.610;7.230;2022-07-23T03:06:37;12.33;;;9.83;;
19673;SDS011;9986;50.610;7.230;2022-07-23T03:11:44;12.10;;;10.37;;
19673;SDS011;9986;50.610;7.230;2022-07-23T03:14:22;15.03;;;10.60;;
19673;SDS011;9986;50.610;7.230;2022-07-23T03:16:59;12.70;;;11.03;;
19673;SDS011;9986;50.610;7.230;2022-07-23T03:24:43;11.67;;;10.43;;
19673;SDS011;9986;50.610;7.230;2022-07-23T03:27:20;16.70;;;11.90;;
19673;SDS011;9986;50.610;7.230;2022-07-23T03:29:58;12.37;;;10.70;;
19673;SDS011;9986;50.610;7.230;2022-07-23T03:35:15;16.33;;;12.30;;
19673;SDS011;9986;50.610;7.230;2022-07-23T03:40:29;16.27;;;11.60;;
19673;SDS011;9986;50.610;7.230;2022-07-23T03:43:14;15.80;;;12.10;;
19673;SDS011;9986;50.610;7.230;2022-07-23T03:45:51;15.43;;;11.73;;
19673;SDS011;9986;50.610;7.230;2022-07-23T03:50:59;16.70;;;13.20;;
19673;SDS011;9986;50.610;7.230;2022-07-23T03:53:36;17.30;;;13.73;;
19673;SDS011;9986;50.610;7.230;2022-07-23T03:58:50;16.93;;;12.47;;
19673;SDS011;9986;50.610;7.230;2022-07-23T04:06:33;14.60;;;11.43;;
19673;SDS011;9986;50.610;7.230;2022-07-23T04:09:11;15.13;;;11.83;;
19673;SDS011;9986;50.610;7.230;2022-07-23T04:11:49;15.70;;;13.17;;
19673;SDS011;9986;50.610;7.230;2022-07-23T04:17:06;18.73;;;12.27;;
19673;SDS011;9986;50.610;7.230;2022-07-23T04:22:13;16.27;;;12.70;;
19673;SDS011;9986;50.610;7.230;2022-07-23T04:27:33;17.53;;;12.20;;
19673;SDS011;9986;50.610;7.230;2022-07-23T04:30:11;16.10;;;12.30;;
19673;SDS011;9986;50.610;7.230;2022-07-23T04:32:49;15.20;;;12.07;;
19673;SDS011;9986;50.610;7.230;2022-07-23T04:35:26;16.93;;;13.17;;
19673;SDS011;9986;50.610;7.230;2022-07-23T04:38:04;15.87;;;12.57;;
19673;SDS011;9986;50.610;7.230;2022-07-23T04:40:42;16.77;;;11.57;;
19673;SDS011;9986;50.610;7.230;2022-07-23T04:43:20;15.77;;;12.47;;
19673;SDS011;9986;50.610;7.230;2022-07-23T04:45:57;22.27;;;14.37;;
19673;SDS011;9986;50.610;7.230;2022-07-23T04:48:35;18.43;;;13.53;;
19673;SDS011;9986;50.610;7.230;2022-07-23T04:51:13;18.17;;;13.53;;
19673;SDS011;9986;50.610;7.230;2022-07-23T04:53:50;19.90;;;13.87;;
19673;SDS011;9986;50.610;7.230;2022-07-23T05:01:40;17.93;;;13.97;;
19673;SDS011;9986;50.610;7.230;2022-07-23T05:04:18;21.83;;;14.23;;
19673;SDS011;9986;50.610;7.230;2022-07-23T05:09:32;17.70;;;12.27;;
19673;SDS011;9986;50.610;7.230;2022-07-23T05:12:09;20.10;;;13.57;;
19673;SDS011;9986;50.610;7.230;2022-07-23T05:17:18;18.10;;;13.77;;
19673;SDS011;9986;50.610;7.230;2022-07-23T05:22:25;18.27;;;13.77;;
19673;SDS011;9986;50.610;7.230;2022-07-23T05:27:39;21.73;;;15.07;;
19673;SDS011;9986;50.610;7.230;2022-07-23T05:33:00;21.20;;;15.30;;
19673;SDS011;9986;50.610;7.230;2022-07-23T05:35:41;18.90;;;14.23;;
19673;SDS011;9986;50.610;7.230;2022-07-23T05:43:34;19.83;;;13.73;;
19673;SDS011;9986;50.610;7.230;2022-07-23T05:48:41;17.40;;;11.87;;
19673;SDS011;9986;50.610;7.230;2022-07-23T05:51:21;16.67;;;11.80;;
19673;SDS011;9986;50.610;7.230;2022-07-23T05:59:06;18.10;;;11.63;;
19673;SDS011;9986;50.610;7.230;2022-07-23T06:01:37;15.80;;;12.07;;
19673;SDS011;9986;50.610;7.230;2022-07-23T06:09:27;12.40;;;10.77;;
19673;SDS011;9986;50.610;7.230;2022-07-23T06:14:41;16.37;;;11.40;;
19673;SDS011;9986;50.610;7.230;2022-07-23T06:17:22;15.13;;;12.10;;
19673;SDS011;9986;50.610;7.230;2022-07-23T06:20:00;17.70;;;11.37;;
19673;SDS011;9986;50.610;7.230;2022-07-23T06:22:38;15.07;;;10.93;;
19673;SDS011;9986;50.610;7.230;2022-07-23T06:25:15;15.90;;;12.33;;
19673;SDS011;9986;50.610;7.230;2022-07-23T06:30:24;18.73;;;12.47;;
19673;SDS011;9986;50.610;7.230;2022-07-23T06:33:02;16.67;;;12.40;;
19673;SDS011;9986;50.610;7.230;2022-07-23T06:35:39;17.73;;;12.10;;
19673;SDS011;9986;50.610;7.230;2022-07-23T06:38:17;18.03;;;13.53;;
19673;SDS011;9986;50.610;7.230;2022-07-23T06:40:55;19.20;;;12.63;;
19673;SDS011;9986;50.610;7.230;2022-07-23T06:51:16;20.17;;;13.30;;
19673;SDS011;9986;50.610;7.230;2022-07-23T06:53:53;17.87;;;12.43;;
19673;SDS011;9986;50.610;7.230;2022-07-23T06:56:31;17.47;;;12.00;;
19673;SDS011;9986;50.610;7.230;2022-07-23T06:59:09;16.67;;;12.63;;
19673;SDS011;9986;50.610;7.230;2022-07-23T07:01:47;17.17;;;12.57;;
19673;SDS011;9986;50.610;7.230;2022-07-23T07:04:24;15.17;;;11.73;;
19673;SDS011;9986;50.610;7.230;2022-07-23T07:07:05;15.43;;;10.80;;
19673;SDS011;9986;50.610;7.230;2022-07-23T07:12:15;17.83;;;12.57;;
19673;SDS011;9986;50.610;7.230;2022-07-23T07:14:53;18.63;;;12.30;;
19673;SDS011;9986;50.610;7.230;2022-07-23T07:22:36;18.20;;;13.23;;
19673;SDS011;9986;50.610;7.230;2022-07-23T07:25:14;19.10;;;12.97;;
19673;SDS011;9986;50.610;7.230;2022-07-23T07:30:28;16.30;;;11.47;;
19673;SDS011;9986;50.610;7.230;2022-07-23T07:33:06;14.30;;;10.40;;
19673;SDS011;9986;50.610;7.230;2022-07-23T07:35:45;10.20;;;8.17;;
19673;SDS011;9986;50.610;7.230;2022-07-23T07:38:23;8.70;;;7.80;;
19673;SDS011;9986;50.610;7.230;2022-07-23T07:41:03;11.60;;;7.70;;
19673;SDS011;9986;50.610;7.230;2022-07-23T07:43:43;7.07;;;5.27;;
19673;SDS011;9986;50.610;7.230;2022-07-23T07:46:21;7.43;;;5.57;;
19673;SDS011;9986;50.610;7.230;2022-07-23T07:51:31;7.20;;;5.40;;
19673;SDS011;9986;50.610;7.230;2022-07-23T07:59:14;6.33;;;4.70;;
19673;SDS011;9986;50.610;7.230;2022-07-23T08:01:52;7.23;;;5.07;;
19673;SDS011;9986;50.610;7.230;2022-07-23T08:04:30;7.23;;;3.67;;
19673;SDS011;9986;50.610;7.230;2022-07-23T08:07:07;6.53;;;4.07;;
19673;SDS011;9986;50.610;7.230;2022-07-23T08:09:45;5.93;;;4.27;;
19673;SDS011;9986;50.610;7.230;2022-07-23T08:12:23;6.20;;;5.30;;
19673;SDS011;9986;50.610;7.230;2022-07-23T08:17:30;7.17;;;4.93;;
19673;SDS011;9986;50.610;7.230;2022-07-23T08:20:09;7.83;;;5.27;;
19673;SDS011;9986;50.610;7.230;2022-07-23T08:22:48;7.73;;;5.33;;
19673;SDS011;9986;50.610;7.230;2022-07-23T08:25:28;8.67;;;5.43;;
19673;SDS011;9986;50.610;7.230;2022-07-23T08:30:48;5.67;;;5.10;;
19673;SDS011;9986;50.610;7.230;2022-07-23T08:35:55;5.93;;;4.63;;
19673;SDS011;9986;50.610;7.230;2022-07-23T08:38:33;6.83;;;4.80;;
19673;SDS011;9986;50.610;7.230;2022-07-23T08:43:40;6.10;;;4.47;;
19673;SDS011;9986;50.610;7.230;2022-07-23T08:46:20;8.87;;;4.43;;
19673;SDS011;9986;50.610;7.230;2022-07-23T08:54:05;6.30;;;4.30;;
19673;SDS011;9986;50.610;7.230;2022-07-23T08:56:49;4.73;;;4.33;;
19673;SDS011;9986;50.610;7.230;2022-07-23T08:59:26;4.80;;;4.27;;
19673;SDS011;9986;50.610;7.230;2022-07-23T09:02:11;7.17;;;4.70;;
19673;SDS011;9986;50.610;7.230;2022-07-23T09:07:21;4.40;;;3.80;;
19673;SDS011;9986;50.610;7.230;2022-07-23T09:10:06;5.47;;;4.33;;
19673;SDS011;9986;50.610;7.230;2022-07-23T09:12:47;7.37;;;4.30;;
19673;SDS011;9986;50.610;7.230;2022-07-23T09:18:02;6.23;;;4.00;;
19673;SDS011;9986;50.610;7.230;2022-07-23T09:20:39;8.33;;;4.30;;
19673;SDS011;9986;50.610;7.230;2022-07-23T09:23:17;5.00;;;4.20;;
19673;SDS011;9986;50.610;7.230;2022-07-23T09:33:37;7.47;;;4.40;;
19673;SDS011;9986;50.610;7.230;2022-07-23T09:36:14;5.20;;;4.27;;
19673;SDS011;9986;50.610;7.230;2022-07-23T09:38:52;5.47;;;3.90;;
19673;SDS011;9986;50.610;7.230;2022-07-23T09:41:34;9.57;;;4.80;;
19673;SDS011;9986;50.610;7.230;2022-07-23T09:44:14;7.87;;;4.87;;
19673;SDS011;9986;50.610;7.230;2022-07-23T09:49:22;8.00;;;5.10;;
19673;SDS011;9986;50.610;7.230;2022-07-23T09:52:00;7.27;;;4.70;;
19673;SDS011;9986;50.610;7.230;2022-07-23T09:57:20;6.63;;;4.93;;
19673;SDS011;9986;50.610;7.230;2022-07-23T10:00:05;7.53;;;6.10;;
19673;SDS011;9986;50.610;7.230;2022-07-23T10:10:34;6.23;;;3.80;;
19673;SDS011;9986;50.610;7.230;2022-07-23T10:13:13;6.10;;;4.27;;
19673;SDS011;9986;50.610;7.230;2022-07-23T10:15:51;6.90;;;3.67;;
19673;SDS011;9986;50.610;7.230;2022-07-23T10:18:29;7.30;;;4.97;;
19673;SDS011;9986;50.610;7.230;2022-07-23T10:21:24;4.17;;;3.40;;
19673;SDS011;9986;50.610;7.230;2022-07-23T10:26:41;5.33;;;4.00;;
19673;SDS011;9986;50.610;7.230;2022-07-23T10:32:07;7.10;;;3.70;;
19673;SDS011;9986;50.610;7.230;2022-07-23T10:34:47;4.23;;;3.60;;
19673;SDS011;9986;50.610;7.230;2022-07-23T10:37:26;4.10;;;3.70;;
19673;SDS011;9986;50.610;7.230;2022-07-23T10:40:11;3.53;;;3.23;;
19673;SDS011;9986;50.610;7.230;2022-07-23T10:42:50;3.00;;;2.80;;
19673;SDS011;9986;50.610;7.230;2022-07-23T10:45:31;7.73;;;4.40;;
19673;SDS011;9986;50.610;7.230;2022-07-23T10:53:57;5.60;;;4.33;;
19673;SDS011;9986;50.610;7.230;2022-07-23T10:57:03;3.63;;;3.33;;
19673;SDS011;9986;50.610;7.230;2022-07-23T11:02:54;3.50;;;3.20;;
19673;SDS011;9986;50.610;7.230;2022-07-23T11:05:40;6.03;;;3.90;;
19673;SDS011;9986;50.610;7.230;2022-07-23T11:10:57;5.70;;;4.00;;
19673;SDS011;9986;50.610;7.230;2022-07-23T11:16:26;3.50;;;3.20;;
19673;SDS011;9986;50.610;7.230;2022-07-23T11:19:05;3.10;;;2.90;;
19673;SDS011;9986;50.610;7.230;2022-07-23T11:21:50;4.17;;;3.07;;
19673;SDS011;9986;50.610;7.230;2022-07-23T11:24:34;3.90;;;2.87;;
19673;SDS011;9986;50.610;7.230;2022-07-23T11:27:13;3.30;;;3.00;;
19673;SDS011;9986;50.610;7.230;2022-07-23T11:32:38;4.22;;;3.00;;
19673;SDS011;9986;50.610;7.230;2022-07-23T11:38:11;4.42;;;3.27;;
19673;SDS011;9986;50.610;7.230;2022-07-23T11:40:55;8.25;;;4.65;;
19673;SDS011;9986;50.610;7.230;2022-07-23T11:43:36;4.75;;;3.37;;
19673;SDS011;9986;50.610;7.230;2022-07-23T11:46:13;4.17;;;3.75;;
19673;SDS011;9986;50.610;7.230;2022-07-23T11:51:37;3.65;;;3.00;;
19673;SDS011;9986;50.610;7.230;2022-07-23T11:54:16;5.78;;;3.67;;
19673;SDS011;9986;50.610;7.230;2022-07-23T11:56:55;5.50;;;4.05;;
19673;SDS011;9986;50.610;7.230;2022-07-23T12:02:06;4.35;;;3.83;;
19673;SDS011;9986;50.610;7.230;2022-07-23T12:04:45;5.33;;;3.50;;
19673;SDS011;9986;50.610;7.230;2022-07-23T12:07:23;3.27;;;3.02;;
19673;SDS011;9986;50.610;7.230;2022-07-23T12:10:03;5.78;;;3.60;;
19673;SDS011;9986;50.610;7.230;2022-07-23T12:12:42;3.52;;;3.17;;
19673;SDS011;9986;50.610;7.230;2022-07-23T12:15:27;3.80;;;3.30;;
19673;SDS011;9986;50.610;7.230;2022-07-23T12:18:05;3.75;;;3.33;;
19673;SDS011;9986;50.610;7.230;2022-07-23T12:23:23;4.78;;;4.28;;
19673;SDS011;9986;50.610;7.230;2022-07-23T12:26:02;4.67;;;3.75;;
19673;SDS011;9986;50.610;7.230;2022-07-23T12:28:40;4.85;;;3.65;;
19673;SDS011;9986;50.610;7.230;2022-07-23T12:31:17;4.85;;;3.50;;
19673;SDS011;9986;50.610;7.230;2022-07-23T12:34:08;4.85;;;3.70;;
19673;SDS011;9986;50.610;7.230;2022-07-23T12:36:50;5.25;;;4.80;;
19673;SDS011;9986;50.610;7.230;2022-07-23T12:39:31;5.40;;;4.92;;
19673;SDS011;9986;50.610;7.230;2022-07-23T12:42:11;4.72;;;4.33;;
19673;SDS011;9986;50.610;7.230;2022-07-23T12:45:09;5.37;;;4.55;;
19673;SDS011;9986;50.610;7.230;2022-07-23T12:50:44;6.50;;;5.17;;
19673;SDS011;9986;50.610;7.230;2022-07-23T12:53:31;4.97;;;4.58;;
19673;SDS011;9986;50.610;7.230;2022-07-23T12:56:10;4.95;;;4.45;;
19673;SDS011;9986;50.610;7.230;2022-07-23T12:58:49;5.15;;;4.75;;
19673;SDS011;9986;50.610;7.230;2022-07-23T13:01:31;7.50;;;4.35;;
19673;SDS011;9986;50.610;7.230;2022-07-23T13:04:09;5.42;;;4.70;;
19673;SDS011;9986;50.610;7.230;2022-07-23T13:06:50;6.45;;;4.70;;
19673;SDS011;9986;50.610;7.230;2022-07-23T13:11:59;4.17;;;3.87;;
19673;SDS011;9986;50.610;7.230;2022-07-23T13:14:37;4.30;;;3.90;;
19673;SDS011;9986;50.610;7.230;2022-07-23T13:19:45;4.37;;;3.98;;
19673;SDS011;9986;50.610;7.230;2022-07-23T13:22:23;4.72;;;4.35;;
19673;SDS011;9986;50.610;7.230;2022-07-23T13:27:39;7.40;;;4.78;;
19673;SDS011;9986;50.610;7.230;2022-07-23T13:32:53;4.67;;;4.10;;
19673;SDS011;9986;50.610;7.230;2022-07-23T13:38:12;4.60;;;4.20;;
19673;SDS011;9986;50.610;7.230;2022-07-23T13:40:50;5.40;;;4.65;;
19673;SDS011;9986;50.610;7.230;2022-07-23T13:43:29;5.42;;;4.58;;
19673;SDS011;9986;50.610;7.230;2022-07-23T13:48:50;6.25;;;4.83;;
19673;SDS011;9986;50.610;7.230;2022-07-23T13:53:58;5.22;;;4.30;;
19673;SDS011;9986;50.610;7.230;2022-07-23T13:59:06;5.22;;;4.78;;
19673;SDS011;9986;50.610;7.230;2022-07-23T14:04:23;4.65;;;4.12;;
19673;SDS011;9986;50.610;7.230;2022-07-23T14:07:00;5.50;;;4.67;;
19673;SDS011;9986;50.610;7.230;2022-07-23T14:09:39;4.78;;;4.25;;
19673;SDS011;9986;50.610;7.230;2022-07-23T14:14:46;4.60;;;4.15;;
19673;SDS011;9986;50.610;7.230;2022-07-23T14:17:24;6.78;;;4.55;;
19673;SDS011;9986;50.610;7.230;2022-07-23T14:20:02;4.53;;;4.12;;
19673;SDS011;9986;50.610;7.230;2022-07-23T14:22:41;5.47;;;3.77;;
19673;SDS011;9986;50.610;7.230;2022-07-23T14:25:19;4.42;;;3.58;;
19673;SDS011;9986;50.610;7.230;2022-07-23T14:30:33;5.60;;;5.10;;
19673;SDS011;9986;50.610;7.230;2022-07-23T14:33:11;5.97;;;4.80;;
19673;SDS011;9986;50.610;7.230;2022-07-23T14:38:19;4.37;;;3.60;;
19673;SDS011;9986;50.610;7.230;2022-07-23T14:40:57;4.33;;;3.90;;
19673;SDS011;9986;50.610;7.230;2022-07-23T14:43:34;6.00;;;4.40;;
19673;SDS011;9986;50.610;7.230;2022-07-23T14:46:12;5.03;;;4.40;;
19673;SDS011;9986;50.610;7.230;2022-07-23T14:48:50;4.95;;;4.55;;
19673;SDS011;9986;50.610;7.230;2022-07-23T14:51:28;3.90;;;3.50;;
19673;SDS011;9986;50.610;7.230;2022-07-23T14:54:06;5.87;;;4.20;;
19673;SDS011;9986;50.610;7.230;2022-07-23T14:56:47;4.85;;;4.30;;
19673;SDS011;9986;50.610;7.230;2022-07-23T14:59:27;6.22;;;5.45;;
19673;SDS011;9986;50.610;7.230;2022-07-23T15:04:43;5.45;;;4.45;;
19673;SDS011;9986;50.610;7.230;2022-07-23T15:09:59;5.78;;;3.80;;
19673;SDS011;9986;50.610;7.230;2022-07-23T15:12:37;4.62;;;3.62;;
19673;SDS011;9986;50.610;7.230;2022-07-23T15:17:53;6.10;;;3.98;;
19673;SDS011;9986;50.610;7.230;2022-07-23T15:20:31;5.50;;;4.10;;
19673;SDS011;9986;50.610;7.230;2022-07-23T15:23:10;4.83;;;4.33;;
19673;SDS011;9986;50.610;7.230;2022-07-23T15:25:48;3.77;;;3.47;;
19673;SDS011;9986;50.610;7.230;2022-07-23T15:28:26;5.45;;;3.35;;
19673;SDS011;9986;50.610;7.230;2022-07-23T15:31:04;5.08;;;3.83;;
19673;SDS011;9986;50.610;7.230;2022-07-23T15:33:41;5.85;;;3.87;;
19673;SDS011;9986;50.610;7.230;2022-07-23T15:36:19;3.70;;;3.40;;
19673;SDS011;9986;50.610;7.230;2022-07-23T15:38:58;3.45;;;3.15;;
19673;SDS011;9986;50.610;7.230;2022-07-23T15:41:35;3.55;;;3.25;;
19673;SDS011;9986;50.610;7.230;2022-07-23T15:46:43;4.05;;;3.25;;
19673;SDS011;9986;50.610;7.230;2022-07-23T15:49:21;5.37;;;3.85;;
19673;SDS011;9986;50.610;7.230;2022-07-23T15:54:28;3.67;;;3.37;;
19673;SDS011;9986;50.610;7.230;2022-07-23T16:02:18;3.92;;;3.52;;
19673;SDS011;9986;50.610;7.230;2022-07-23T16:04:56;6.30;;;3.50;;
19673;SDS011;9986;50.610;7.230;2022-07-23T16:07:36;4.45;;;3.10;;
19673;SDS011;9986;50.610;7.230;2022-07-23T16:10:14;5.10;;;3.80;;
19673;SDS011;9986;50.610;7.230;2022-07-23T16:15:21;7.92;;;5.83;;
19673;SDS011;9986;50.610;7.230;2022-07-23T16:17:59;5.05;;;4.10;;
19673;SDS011;9986;50.610;7.230;2022-07-23T16:20:37;5.05;;;4.03;;
19673;SDS011;9986;50.610;7.230;2022-07-23T16:23:15;5.90;;;4.80;;
19673;SDS011;9986;50.610;7.230;2022-07-23T16:25:56;5.28;;;4.50;;
19673;SDS011;9986;50.610;7.230;2022-07-23T16:28:40;3.90;;;3.50;;
19673;SDS011;9986;50.610;7.230;2022-07-23T16:31:18;3.87;;;3.42;;
19673;SDS011;9986;50.610;7.230;2022-07-23T16:34:00;7.78;;;3.35;;
19673;SDS011;9986;50.610;7.230;2022-07-23T16:36:40;3.27;;;2.90;;
19673;SDS011;9986;50.610;7.230;2022-07-23T16:39:21;4.25;;;3.25;;
19673;SDS011;9986;50.610;7.230;2022-07-23T16:41:59;4.83;;;3.05;;
19673;SDS011;9986;50.610;7.230;2022-07-23T16:44:36;4.83;;;3.02;;
19673;SDS011;9986;50.610;7.230;2022-07-23T16:47:14;3.83;;;3.47;;
19673;SDS011;9986;50.610;7.230;2022-07-23T16:49:52;3.30;;;3.10;;
19673;SDS011;9986;50.610;7.230;2022-07-23T16:52:30;3.85;;;3.20;;
19673;SDS011;9986;50.610;7.230;2022-07-23T16:55:08;5.37;;;3.70;;
19673;SDS011;9986;50.610;7.230;2022-07-23T16:57:46;3.98;;;3.58;;
19673;SDS011;9986;50.610;7.230;2022-07-23T17:02:53;5.47;;;2.80;;
19673;SDS011;9986;50.610;7.230;2022-07-23T17:05:31;3.67;;;2.77;;
19673;SDS011;9986;50.610;7.230;2022-07-23T17:08:11;3.33;;;3.00;;
19673;SDS011;9986;50.610;7.230;2022-07-23T17:10:59;2.95;;;2.70;;
19673;SDS011;9986;50.610;7.230;2022-07-23T17:13:43;4.90;;;2.90;;
19673;SDS011;9986;50.610;7.230;2022-07-23T17:21:28;4.08;;;3.37;;
19673;SDS011;9986;50.610;7.230;2022-07-23T17:24:06;9.78;;;7.37;;
19673;SDS011;9986;50.610;7.230;2022-07-23T17:26:44;4.05;;;3.35;;
19673;SDS011;9986;50.610;7.230;2022-07-23T17:29:22;5.78;;;3.72;;
19673;SDS011;9986;50.610;7.230;2022-07-23T17:32:00;5.00;;;4.30;;
19673;SDS011;9986;50.610;7.230;2022-07-23T17:37:09;3.33;;;2.92;;
19673;SDS011;9986;50.610;7.230;2022-07-23T17:39:46;3.27;;;2.85;;
19673;SDS011;9986;50.610;7.230;2022-07-23T17:42:30;4.12;;;3.52;;
19673;SDS011;9986;50.610;7.230;2022-07-23T17:47:41;3.55;;;2.80;;
19673;SDS011;9986;50.610;7.230;2022-07-23T17:50:19;3.00;;;2.80;;
19673;SDS011;9986;50.610;7.230;2022-07-23T17:52:56;3.77;;;3.10;;
19673;SDS011;9986;50.610;7.230;2022-07-23T17:58:03;3.33;;;2.60;;
19673;SDS011;9986;50.610;7.230;2022-07-23T18:03:11;2.92;;;2.60;;
19673;SDS011;9986;50.610;7.230;2022-07-23T18:05:48;4.08;;;3.67;;
19673;SDS011;9986;50.610;7.230;2022-07-23T18:08:26;4.12;;;3.02;;
19673;SDS011;9986;50.610;7.230;2022-07-23T18:11:06;5.33;;;2.90;;
19673;SDS011;9986;50.610;7.230;2022-07-23T18:13:44;7.87;;;3.17;;
19673;SDS011;9986;50.610;7.230;2022-07-23T18:16:22;5.90;;;3.33;;
19673;SDS011;9986;50.610;7.230;2022-07-23T18:19:06;2.80;;;2.60;;
19673;SDS011;9986;50.610;7.230;2022-07-23T18:26:49;3.77;;;3.15;;
19673;SDS011;9986;50.610;7.230;2022-07-23T18:32:09;2.85;;;2.60;;
19673;SDS011;9986;50.610;7.230;2022-07-23T18:34:47;4.28;;;3.40;;
19673;SDS011;9986;50.610;7.230;2022-07-23T18:37:25;3.50;;;3.20;;
19673;SDS011;9986;50.610;7.230;2022-07-23T18:40:03;3.77;;;2.52;;
19673;SDS011;9986;50.610;7.230;2022-07-23T18:42:42;2.72;;;2.45;;
19673;SDS011;9986;50.610;7.230;2022-07-23T18:45:20;3.67;;;2.65;;
19673;SDS011;9986;50.610;7.230;2022-07-23T18:47:57;4.12;;;2.58;;
19673;SDS011;9986;50.610;7.230;2022-07-23T18:50:35;4.03;;;2.70;;
19673;SDS011;9986;50.610;7.230;2022-07-23T18:55:47;5.35;;;2.75;;
19673;SDS011;9986;50.610;7.230;2022-07-23T18:58:25;4.15;;;3.22;;
19673;SDS011;9986;50.610;7.230;2022-07-23T19:01:03;4.62;;;3.12;;
19673;SDS011;9986;50.610;7.230;2022-07-23T19:06:11;3.60;;;2.87;;
19673;SDS011;9986;50.610;7.230;2022-07-23T19:11:18;3.12;;;2.85;;
19673;SDS011;9986;50.610;7.230;2022-07-23T19:16:31;4.90;;;3.20;;
19673;SDS011;9986;50.610;7.230;2022-07-23T19:19:09;3.12;;;2.92;;
19673;SDS011;9986;50.610;7.230;2022-07-23T19:21:47;5.40;;;2.72;;
19673;SDS011;9986;50.610;7.230;2022-07-23T19:24:25;3.72;;;3.30;;
19673;SDS011;9986;50.610;7.230;2022-07-23T19:27:02;3.42;;;2.98;;
19673;SDS011;9986;50.610;7.230;2022-07-23T19:29:40;3.58;;;3.10;;
19673;SDS011;9986;50.610;7.230;2022-07-23T19:34:51;4.15;;;3.15;;
19673;SDS011;9986;50.610;7.230;2022-07-23T19:37:35;3.90;;;2.77;;
19673;SDS011;9986;50.610;7.230;2022-07-23T19:40:13;4.28;;;3.20;;
19673;SDS011;9986;50.610;7.230;2022-07-23T19:50:33;3.12;;;2.90;;
19673;SDS011;9986;50.610;7.230;2022-07-23T19:53:13;4.33;;;2.70;;
19673;SDS011;9986;50.610;7.230;2022-07-23T19:55:51;3.60;;;3.00;;
19673;SDS011;9986;50.610;7.230;2022-07-23T19:58:32;4.45;;;3.22;;
19673;SDS011;9986;50.610;7.230;2022-07-23T20:03:45;4.00;;;3.13;;
19673;SDS011;9986;50.610;7.230;2022-07-23T20:11:34;7.53;;;2.98;;
19673;SDS011;9986;50.610;7.230;2022-07-23T20:16:48;3.40;;;2.80;;
19673;SDS011;9986;50.610;7.230;2022-07-23T20:19:26;3.50;;;3.20;;
19673;SDS011;9986;50.610;7.230;2022-07-23T20:22:03;3.83;;;2.97;;
19673;SDS011;9986;50.610;7.230;2022-07-23T20:27:28;3.67;;;3.37;;
19673;SDS011;9986;50.610;7.230;2022-07-23T20:30:08;4.03;;;2.87;;
19673;SDS011;9986;50.610;7.230;2022-07-23T20:32:47;3.00;;;2.80;;
19673;SDS011;9986;50.610;7.230;2022-07-23T20:40:46;3.17;;;2.87;;
19673;SDS011;9986;50.610;7.230;2022-07-23T20:43:24;4.50;;;3.33;;
19673;SDS011;9986;50.610;7.230;2022-07-23T20:46:01;3.27;;;2.93;;
19673;SDS011;9986;50.610;7.230;2022-07-23T20:48:39;5.10;;;3.27;;
19673;SDS011;9986;50.610;7.230;2022-07-23T20:51:23;3.60;;;3.03;;
19673;SDS011;9986;50.610;7.230;2022-07-23T20:54:00;3.80;;;3.40;;
19673;SDS011;9986;50.610;7.230;2022-07-23T20:56:38;3.37;;;3.07;;
19673;SDS011;9986;50.610;7.230;2022-07-23T20:59:22;3.80;;;3.27;;
19673;SDS011;9986;50.610;7.230;2022-07-23T21:04:29;3.03;;;2.80;;
19673;SDS011;9986;50.610;7.230;2022-07-23T21:07:07;3.30;;;3.00;;
19673;SDS011;9986;50.610;7.230;2022-07-23T21:09:38;3.57;;;3.23;;
19673;SDS011;9986;50.610;7.230;2022-07-23T21:12:15;5.33;;;3.43;;
19673;SDS011;9986;50.610;7.230;2022-07-23T21:14:53;3.63;;;3.30;;
19673;SDS011;9986;50.610;7.230;2022-07-23T21:17:31;3.27;;;3.00;;
19673;SDS011;9986;50.610;7.230;2022-07-23T21:20:09;3.90;;;3.10;;
19673;SDS011;9986;50.610;7.230;2022-07-23T21:22:50;3.93;;;3.53;;
19673;SDS011;9986;50.610;7.230;2022-07-23T21:25:28;4.90;;;3.20;;
19673;SDS011;9986;50.610;7.230;2022-07-23T21:28:05;3.23;;;2.97;;
19673;SDS011;9986;50.610;7.230;2022-07-23T21:30:43;4.30;;;3.90;;
19673;SDS011;9986;50.610;7.230;2022-07-23T21:33:21;3.77;;;3.37;;
19673;SDS011;9986;50.610;7.230;2022-07-23T21:36:01;5.07;;;3.53;;
19673;SDS011;9986;50.610;7.230;2022-07-23T21:41:14;5.53;;;3.10;;